sensor_id;sensor_type;location;lat;lon;timestamp;temperature;humidity
41628;DHT22;27321;50.816;6.054;2023-03-16T00:01:11;7.20;60.20
41628;DHT22;27321;50.816;6.054;2023-03-16T00:04:15;7.20;60.00
41628;DHT22;27321;50.816;6.054;2023-03-16T00:07:16;7.20;60.20
41628;DHT22;27321;50.816;6.054;2023-03-16T00:10:18;7.20;60.00
41628;DHT22;27321;50.816;6.054;2023-03-16T00:13:20;7.20;60.20
41628;DHT22;27321;50.816;6.054;2023-03-16T00:16:25;7.20;60.60
41628;DHT22;27321;50.816;6.054;2023-03-16T00:19:26;7.20;60.60
41628;DHT22;27321;50.816;6.054;2023-03-16T00:22:28;7.20;60.60
41628;DHT22;27321;50.816;6.054;2023-03-16T00:25:30;7.20;60.30
41628;DHT22;27321;50.816;6.054;2023-03-16T00:28:34;7.20;60.60
41628;DHT22;27321;50.816;6.054;2023-03-16T00:31:40;7.20;60.70
41628;DHT22;27321;50.816;6.054;2023-03-16T00:34:45;7.20;61.00
41628;DHT22;27321;50.816;6.054;2023-03-16T00:37:47;7.20;61.30
41628;DHT22;27321;50.816;6.054;2023-03-16T00:40:48;7.30;61.10
41628;DHT22;27321;50.816;6.054;2023-03-16T00:43:50;7.20;60.70
41628;DHT22;27321;50.816;6.054;2023-03-16T00:46:53;7.20;60.80
41628;DHT22;27321;50.816;6.054;2023-03-16T00:49:54;7.20;61.30
41628;DHT22;27321;50.816;6.054;2023-03-16T00:52:55;7.30;61.40
41628;DHT22;27321;50.816;6.054;2023-03-16T00:56:00;7.30;61.00
41628;DHT22;27321;50.816;6.054;2023-03-16T00:59:05;7.30;60.70
41628;DHT22;27321;50.816;6.054;2023-03-16T01:02:09;7.30;60.60
41628;DHT22;27321;50.816;6.054;2023-03-16T01:05:11;7.30;60.30
41628;DHT22;27321;50.816;6.054;2023-03-16T01:08:13;7.30;60.50
41628;DHT22;27321;50.816;6.054;2023-03-16T01:11:17;7.30;60.10
41628;DHT22;27321;50.816;6.054;2023-03-16T01:14:20;7.40;60.00
41628;DHT22;27321;50.816;6.054;2023-03-16T01:17:22;7.40;59.80
41628;DHT22;27321;50.816;6.054;2023-03-16T01:20:23;7.40;59.90
41628;DHT22;27321;50.816;6.054;2023-03-16T01:23:26;7.40;59.80
41628;DHT22;27321;50.816;6.054;2023-03-16T01:26:30;7.40;59.80
41628;DHT22;27321;50.816;6.054;2023-03-16T01:29:32;7.40;59.70
41628;DHT22;27321;50.816;6.054;2023-03-16T01:32:33;7.30;58.40
41628;DHT22;27321;50.816;6.054;2023-03-16T01:35:34;7.30;59.10
41628;DHT22;27321;50.816;6.054;2023-03-16T01:38:36;7.30;59.30
41628;DHT22;27321;50.816;6.054;2023-03-16T01:41:39;7.30;59.30
41628;DHT22;27321;50.816;6.054;2023-03-16T01:44:53;7.30;59.20
41628;DHT22;27321;50.816;6.054;2023-03-16T01:47:58;7.40;59.20
41628;DHT22;27321;50.816;6.054;2023-03-16T01:50:59;7.40;58.90
41628;DHT22;27321;50.816;6.054;2023-03-16T01:57:18;7.40;58.70
41628;DHT22;27321;50.816;6.054;2023-03-16T02:00:21;7.40;58.90
41628;DHT22;27321;50.816;6.054;2023-03-16T02:03:38;7.40;58.60
41628;DHT22;27321;50.816;6.054;2023-03-16T02:06:48;7.40;58.80
41628;DHT22;27321;50.816;6.054;2023-03-16T02:09:53;7.40;58.90
41628;DHT22;27321;50.816;6.054;2023-03-16T02:12:58;7.50;58.70
41628;DHT22;27321;50.816;6.054;2023-03-16T02:16:00;7.40;58.80
41628;DHT22;27321;50.816;6.054;2023-03-16T02:19:08;7.40;58.40
41628;DHT22;27321;50.816;6.054;2023-03-16T02:22:12;7.50;58.70
41628;DHT22;27321;50.816;6.054;2023-03-16T02:25:17;7.40;58.50
41628;DHT22;27321;50.816;6.054;2023-03-16T02:31:52;7.40;58.80
41628;DHT22;27321;50.816;6.054;2023-03-16T02:34:55;7.40;58.20
41628;DHT22;27321;50.816;6.054;2023-03-16T02:37:56;7.40;58.70
41628;DHT22;27321;50.816;6.054;2023-03-16T02:41:19;7.40;58.80
41628;DHT22;27321;50.816;6.054;2023-03-16T02:44:34;7.40;58.70
41628;DHT22;27321;50.816;6.054;2023-03-16T02:47:41;7.40;58.50
41628;DHT22;27321;50.816;6.054;2023-03-16T02:50:45;7.50;58.60
41628;DHT22;27321;50.816;6.054;2023-03-16T02:53:47;7.50;58.90
41628;DHT22;27321;50.816;6.054;2023-03-16T02:56:49;7.50;59.00
41628;DHT22;27321;50.816;6.054;2023-03-16T02:59:50;7.50;59.00
41628;DHT22;27321;50.816;6.054;2023-03-16T03:02:52;7.50;59.10
41628;DHT22;27321;50.816;6.054;2023-03-16T03:05:53;7.50;58.90
41628;DHT22;27321;50.816;6.054;2023-03-16T03:08:54;7.40;58.70
41628;DHT22;27321;50.816;6.054;2023-03-16T03:11:56;7.40;58.90
41628;DHT22;27321;50.816;6.054;2023-03-16T03:14:56;7.30;59.00
41628;DHT22;27321;50.816;6.054;2023-03-16T03:17:58;7.40;59.50
41628;DHT22;27321;50.816;6.054;2023-03-16T03:21:03;7.30;59.20
41628;DHT22;27321;50.816;6.054;2023-03-16T03:24:04;7.40;59.50
41628;DHT22;27321;50.816;6.054;2023-03-16T03:27:08;7.30;59.60
41628;DHT22;27321;50.816;6.054;2023-03-16T03:30:14;7.40;59.40
41628;DHT22;27321;50.816;6.054;2023-03-16T03:33:17;7.30;59.80
41628;DHT22;27321;50.816;6.054;2023-03-16T03:36:18;7.30;59.90
41628;DHT22;27321;50.816;6.054;2023-03-16T03:39:22;7.30;59.50
41628;DHT22;27321;50.816;6.054;2023-03-16T03:42:25;7.30;60.00
41628;DHT22;27321;50.816;6.054;2023-03-16T03:45:26;7.20;60.20
41628;DHT22;27321;50.816;6.054;2023-03-16T03:48:27;7.20;60.30
41628;DHT22;27321;50.816;6.054;2023-03-16T03:51:31;7.30;60.40
41628;DHT22;27321;50.816;6.054;2023-03-16T03:54:37;7.30;59.90
41628;DHT22;27321;50.816;6.054;2023-03-16T03:57:42;7.30;60.80
41628;DHT22;27321;50.816;6.054;2023-03-16T04:00:44;7.30;60.50
41628;DHT22;27321;50.816;6.054;2023-03-16T04:03:45;7.30;60.20
41628;DHT22;27321;50.816;6.054;2023-03-16T04:06:48;7.30;60.40
41628;DHT22;27321;50.816;6.054;2023-03-16T04:09:51;7.20;60.10
41628;DHT22;27321;50.816;6.054;2023-03-16T04:13:11;7.20;60.40
41628;DHT22;27321;50.816;6.054;2023-03-16T04:16:12;7.30;60.60
41628;DHT22;27321;50.816;6.054;2023-03-16T04:19:17;7.30;60.40
41628;DHT22;27321;50.816;6.054;2023-03-16T04:22:18;7.40;60.30
41628;DHT22;27321;50.816;6.054;2023-03-16T04:25:26;7.30;60.30
41628;DHT22;27321;50.816;6.054;2023-03-16T04:28:28;7.40;60.40
41628;DHT22;27321;50.816;6.054;2023-03-16T04:31:29;7.40;59.70
41628;DHT22;27321;50.816;6.054;2023-03-16T04:34:30;7.40;60.10
41628;DHT22;27321;50.816;6.054;2023-03-16T04:37:35;7.40;60.30
41628;DHT22;27321;50.816;6.054;2023-03-16T04:40:37;7.30;59.90
41628;DHT22;27321;50.816;6.054;2023-03-16T04:43:45;7.30;59.90
41628;DHT22;27321;50.816;6.054;2023-03-16T04:46:54;7.40;60.10
41628;DHT22;27321;50.816;6.054;2023-03-16T04:49:57;7.40;59.90
41628;DHT22;27321;50.816;6.054;2023-03-16T04:52:59;7.50;59.70
41628;DHT22;27321;50.816;6.054;2023-03-16T04:56:06;7.40;60.20
41628;DHT22;27321;50.816;6.054;2023-03-16T04:59:08;7.40;59.80
41628;DHT22;27321;50.816;6.054;2023-03-16T05:02:21;7.50;59.90
41628;DHT22;27321;50.816;6.054;2023-03-16T05:05:24;7.40;59.90
41628;DHT22;27321;50.816;6.054;2023-03-16T05:08:25;7.30;60.20
41628;DHT22;27321;50.816;6.054;2023-03-16T05:11:31;7.40;59.90
41628;DHT22;27321;50.816;6.054;2023-03-16T05:14:35;7.40;59.90
41628;DHT22;27321;50.816;6.054;2023-03-16T05:18:09;7.40;60.00
41628;DHT22;27321;50.816;6.054;2023-03-16T05:21:13;7.40;59.60
41628;DHT22;27321;50.816;6.054;2023-03-16T05:24:40;7.40;59.70
41628;DHT22;27321;50.816;6.054;2023-03-16T05:27:46;7.40;59.40
41628;DHT22;27321;50.816;6.054;2023-03-16T05:30:54;7.40;59.90
41628;DHT22;27321;50.816;6.054;2023-03-16T05:34:00;7.50;59.90
41628;DHT22;27321;50.816;6.054;2023-03-16T05:37:02;7.50;60.00
41628;DHT22;27321;50.816;6.054;2023-03-16T05:40:06;7.50;59.80
41628;DHT22;27321;50.816;6.054;2023-03-16T05:43:20;7.50;59.90
41628;DHT22;27321;50.816;6.054;2023-03-16T05:46:25;7.50;59.50
41628;DHT22;27321;50.816;6.054;2023-03-16T05:49:26;7.50;59.50
41628;DHT22;27321;50.816;6.054;2023-03-16T05:52:28;7.50;59.40
41628;DHT22;27321;50.816;6.054;2023-03-16T05:55:31;7.50;60.20
41628;DHT22;27321;50.816;6.054;2023-03-16T05:58:35;7.50;60.00
41628;DHT22;27321;50.816;6.054;2023-03-16T06:01:43;7.40;60.30
41628;DHT22;27321;50.816;6.054;2023-03-16T06:04:44;7.50;60.10
41628;DHT22;27321;50.816;6.054;2023-03-16T06:07:46;7.50;60.30
41628;DHT22;27321;50.816;6.054;2023-03-16T06:10:49;7.50;60.10
41628;DHT22;27321;50.816;6.054;2023-03-16T06:13:52;7.60;60.30
41628;DHT22;27321;50.816;6.054;2023-03-16T06:16:53;7.60;60.30
41628;DHT22;27321;50.816;6.054;2023-03-16T06:19:55;7.70;60.40
41628;DHT22;27321;50.816;6.054;2023-03-16T06:22:56;7.70;60.20
41628;DHT22;27321;50.816;6.054;2023-03-16T06:25:58;7.70;60.20
41628;DHT22;27321;50.816;6.054;2023-03-16T06:29:01;7.70;59.80
41628;DHT22;27321;50.816;6.054;2023-03-16T06:32:03;7.70;60.20
41628;DHT22;27321;50.816;6.054;2023-03-16T06:35:04;7.70;60.20
41628;DHT22;27321;50.816;6.054;2023-03-16T06:38:08;7.80;60.50
41628;DHT22;27321;50.816;6.054;2023-03-16T06:41:27;7.80;60.50
41628;DHT22;27321;50.816;6.054;2023-03-16T06:44:28;7.80;60.20
41628;DHT22;27321;50.816;6.054;2023-03-16T06:47:37;7.90;60.80
41628;DHT22;27321;50.816;6.054;2023-03-16T06:50:38;7.90;60.80
41628;DHT22;27321;50.816;6.054;2023-03-16T06:53:39;8.00;60.10
41628;DHT22;27321;50.816;6.054;2023-03-16T06:56:41;8.00;59.70
41628;DHT22;27321;50.816;6.054;2023-03-16T06:59:42;8.00;60.40
41628;DHT22;27321;50.816;6.054;2023-03-16T07:02:43;8.00;60.40
41628;DHT22;27321;50.816;6.054;2023-03-16T07:05:47;8.00;60.10
41628;DHT22;27321;50.816;6.054;2023-03-16T07:08:48;8.00;60.40
41628;DHT22;27321;50.816;6.054;2023-03-16T07:11:51;8.00;60.60
41628;DHT22;27321;50.816;6.054;2023-03-16T07:14:52;8.10;60.50
41628;DHT22;27321;50.816;6.054;2023-03-16T07:17:56;8.10;60.20
41628;DHT22;27321;50.816;6.054;2023-03-16T07:20:58;8.10;60.20
41628;DHT22;27321;50.816;6.054;2023-03-16T07:24:00;8.10;60.60
41628;DHT22;27321;50.816;6.054;2023-03-16T07:27:05;8.20;60.70
41628;DHT22;27321;50.816;6.054;2023-03-16T07:30:07;8.30;60.70
41628;DHT22;27321;50.816;6.054;2023-03-16T07:33:13;8.40;60.30
41628;DHT22;27321;50.816;6.054;2023-03-16T07:36:14;8.40;60.10
41628;DHT22;27321;50.816;6.054;2023-03-16T07:39:22;8.50;60.60
41628;DHT22;27321;50.816;6.054;2023-03-16T07:42:26;8.50;60.10
41628;DHT22;27321;50.816;6.054;2023-03-16T07:45:48;8.50;60.00
41628;DHT22;27321;50.816;6.054;2023-03-16T07:48:51;8.50;60.60
41628;DHT22;27321;50.816;6.054;2023-03-16T07:51:52;8.50;60.50
41628;DHT22;27321;50.816;6.054;2023-03-16T07:54:57;8.40;60.30
41628;DHT22;27321;50.816;6.054;2023-03-16T07:57:58;8.40;60.90
41628;DHT22;27321;50.816;6.054;2023-03-16T08:01:04;8.50;60.90
41628;DHT22;27321;50.816;6.054;2023-03-16T08:04:05;8.50;61.00
41628;DHT22;27321;50.816;6.054;2023-03-16T08:07:08;8.60;60.50
41628;DHT22;27321;50.816;6.054;2023-03-16T08:10:42;8.70;60.70
41628;DHT22;27321;50.816;6.054;2023-03-16T08:13:51;8.80;60.20
41628;DHT22;27321;50.816;6.054;2023-03-16T08:16:54;8.80;60.00
41628;DHT22;27321;50.816;6.054;2023-03-16T08:20:00;8.90;59.70
41628;DHT22;27321;50.816;6.054;2023-03-16T08:23:01;9.00;59.60
41628;DHT22;27321;50.816;6.054;2023-03-16T08:26:09;9.10;59.70
41628;DHT22;27321;50.816;6.054;2023-03-16T08:29:12;9.20;59.20
41628;DHT22;27321;50.816;6.054;2023-03-16T08:32:14;9.10;58.50
41628;DHT22;27321;50.816;6.054;2023-03-16T08:35:17;9.20;58.20
41628;DHT22;27321;50.816;6.054;2023-03-16T08:38:19;9.30;58.70
41628;DHT22;27321;50.816;6.054;2023-03-16T08:41:22;9.40;58.20
41628;DHT22;27321;50.816;6.054;2023-03-16T08:44:25;9.50;57.90
41628;DHT22;27321;50.816;6.054;2023-03-16T08:47:28;9.60;58.30
41628;DHT22;27321;50.816;6.054;2023-03-16T08:50:29;9.70;58.00
41628;DHT22;27321;50.816;6.054;2023-03-16T08:53:30;9.70;57.00
41628;DHT22;27321;50.816;6.054;2023-03-16T08:56:31;9.70;57.00
41628;DHT22;27321;50.816;6.054;2023-03-16T08:59:32;9.70;56.70
41628;DHT22;27321;50.816;6.054;2023-03-16T09:02:33;9.70;56.40
41628;DHT22;27321;50.816;6.054;2023-03-16T09:05:37;9.80;56.70
41628;DHT22;27321;50.816;6.054;2023-03-16T09:08:40;9.90;56.60
41628;DHT22;27321;50.816;6.054;2023-03-16T09:11:41;10.00;56.60
41628;DHT22;27321;50.816;6.054;2023-03-16T09:14:42;10.00;56.70
41628;DHT22;27321;50.816;6.054;2023-03-16T09:17:43;10.10;56.40
41628;DHT22;27321;50.816;6.054;2023-03-16T09:20:45;10.20;55.70
41628;DHT22;27321;50.816;6.054;2023-03-16T09:23:47;10.20;55.90
41628;DHT22;27321;50.816;6.054;2023-03-16T09:26:48;10.30;55.60
41628;DHT22;27321;50.816;6.054;2023-03-16T09:29:50;10.40;55.70
41628;DHT22;27321;50.816;6.054;2023-03-16T09:32:52;10.50;55.50
41628;DHT22;27321;50.816;6.054;2023-03-16T09:35:54;10.60;55.30
41628;DHT22;27321;50.816;6.054;2023-03-16T09:38:57;10.60;54.50
41628;DHT22;27321;50.816;6.054;2023-03-16T09:45:42;10.80;54.10
41628;DHT22;27321;50.816;6.054;2023-03-16T09:49:05;10.80;53.90
41628;DHT22;27321;50.816;6.054;2023-03-16T09:52:27;10.80;54.60
41628;DHT22;27321;50.816;6.054;2023-03-16T09:55:53;11.00;54.00
41628;DHT22;27321;50.816;6.054;2023-03-16T09:58:58;11.00;54.40
41628;DHT22;27321;50.816;6.054;2023-03-16T10:05:51;11.20;54.20
41628;DHT22;27321;50.816;6.054;2023-03-16T10:12:44;11.20;52.00
41628;DHT22;27321;50.816;6.054;2023-03-16T10:15:48;11.20;52.40
41628;DHT22;27321;50.816;6.054;2023-03-16T10:18:59;11.30;52.70
41628;DHT22;27321;50.816;6.054;2023-03-16T10:22:21;11.40;53.10
41628;DHT22;27321;50.816;6.054;2023-03-16T10:25:47;11.50;52.80
41628;DHT22;27321;50.816;6.054;2023-03-16T10:28:50;11.50;53.00
41628;DHT22;27321;50.816;6.054;2023-03-16T10:31:57;11.60;53.50
41628;DHT22;27321;50.816;6.054;2023-03-16T10:35:36;11.70;52.60
41628;DHT22;27321;50.816;6.054;2023-03-16T10:38:50;11.80;52.80
41628;DHT22;27321;50.816;6.054;2023-03-16T10:41:55;12.00;52.90
41628;DHT22;27321;50.816;6.054;2023-03-16T10:44:58;12.10;52.60
41628;DHT22;27321;50.816;6.054;2023-03-16T10:48:18;12.10;51.80
41628;DHT22;27321;50.816;6.054;2023-03-16T10:51:28;12.10;51.90
41628;DHT22;27321;50.816;6.054;2023-03-16T10:54:40;12.20;51.60
41628;DHT22;27321;50.816;6.054;2023-03-16T10:57:56;12.30;51.40
41628;DHT22;27321;50.816;6.054;2023-03-16T11:00:59;12.40;51.40
41628;DHT22;27321;50.816;6.054;2023-03-16T11:04:00;12.50;50.80
41628;DHT22;27321;50.816;6.054;2023-03-16T11:07:02;12.50;50.00
41628;DHT22;27321;50.816;6.054;2023-03-16T11:10:16;12.60;49.70
41628;DHT22;27321;50.816;6.054;2023-03-16T11:13:35;12.70;49.30
41628;DHT22;27321;50.816;6.054;2023-03-16T11:16:39;12.60;49.00
41628;DHT22;27321;50.816;6.054;2023-03-16T11:20:12;12.60;48.40
41628;DHT22;27321;50.816;6.054;2023-03-16T11:23:21;12.70;48.50
41628;DHT22;27321;50.816;6.054;2023-03-16T11:26:34;12.70;48.90
41628;DHT22;27321;50.816;6.054;2023-03-16T11:29:52;12.70;49.00
41628;DHT22;27321;50.816;6.054;2023-03-16T11:32:59;12.70;48.90
41628;DHT22;27321;50.816;6.054;2023-03-16T11:39:13;12.70;49.30
41628;DHT22;27321;50.816;6.054;2023-03-16T11:50:27;12.90;49.70
41628;DHT22;27321;50.816;6.054;2023-03-16T12:11:19;13.60;48.30
41628;DHT22;27321;50.816;6.054;2023-03-16T12:17:43;13.70;47.80
41628;DHT22;27321;50.816;6.054;2023-03-16T12:20:58;13.70;47.40
41628;DHT22;27321;50.816;6.054;2023-03-16T12:24:05;13.80;47.10
41628;DHT22;27321;50.816;6.054;2023-03-16T12:27:19;13.80;46.90
41628;DHT22;27321;50.816;6.054;2023-03-16T12:34:03;14.00;48.30
41628;DHT22;27321;50.816;6.054;2023-03-16T12:44:44;14.20;46.80
41628;DHT22;27321;50.816;6.054;2023-03-16T12:48:14;14.20;46.40
41628;DHT22;27321;50.816;6.054;2023-03-16T12:51:34;14.10;46.30
41628;DHT22;27321;50.816;6.054;2023-03-16T12:54:49;14.10;47.20
41628;DHT22;27321;50.816;6.054;2023-03-16T12:58:07;14.20;46.80
41628;DHT22;27321;50.816;6.054;2023-03-16T13:01:10;14.20;46.90
41628;DHT22;27321;50.816;6.054;2023-03-16T13:04:32;14.20;47.10
41628;DHT22;27321;50.816;6.054;2023-03-16T13:07:35;14.30;47.30
41628;DHT22;27321;50.816;6.054;2023-03-16T13:10:38;14.40;47.90
41628;DHT22;27321;50.816;6.054;2023-03-16T13:14:03;14.50;47.30
41628;DHT22;27321;50.816;6.054;2023-03-16T13:20:34;14.40;46.10
41628;DHT22;27321;50.816;6.054;2023-03-16T13:23:57;14.40;47.10
41628;DHT22;27321;50.816;6.054;2023-03-16T13:27:18;14.40;47.70
41628;DHT22;27321;50.816;6.054;2023-03-16T13:30:31;14.50;47.50
41628;DHT22;27321;50.816;6.054;2023-03-16T13:33:34;14.40;47.30
41628;DHT22;27321;50.816;6.054;2023-03-16T13:36:40;14.30;46.80
41628;DHT22;27321;50.816;6.054;2023-03-16T13:39:52;14.30;45.90
41628;DHT22;27321;50.816;6.054;2023-03-16T13:42:57;14.30;46.10
41628;DHT22;27321;50.816;6.054;2023-03-16T13:45:58;14.30;47.00
41628;DHT22;27321;50.816;6.054;2023-03-16T13:48:59;14.40;47.80
41628;DHT22;27321;50.816;6.054;2023-03-16T13:52:03;14.40;47.50
41628;DHT22;27321;50.816;6.054;2023-03-16T13:55:14;14.50;48.10
41628;DHT22;27321;50.816;6.054;2023-03-16T13:58:27;14.50;47.60
41628;DHT22;27321;50.816;6.054;2023-03-16T14:01:33;14.50;48.00
41628;DHT22;27321;50.816;6.054;2023-03-16T14:04:35;14.60;48.00
41628;DHT22;27321;50.816;6.054;2023-03-16T14:07:37;14.60;47.70
41628;DHT22;27321;50.816;6.054;2023-03-16T14:10:39;14.60;46.70
41628;DHT22;27321;50.816;6.054;2023-03-16T14:13:40;14.60;46.20
41628;DHT22;27321;50.816;6.054;2023-03-16T14:16:42;14.60;46.70
41628;DHT22;27321;50.816;6.054;2023-03-16T14:19:50;14.60;46.60
41628;DHT22;27321;50.816;6.054;2023-03-16T14:22:53;14.60;46.90
41628;DHT22;27321;50.816;6.054;2023-03-16T14:25:55;14.60;47.60
41628;DHT22;27321;50.816;6.054;2023-03-16T14:32:30;14.60;46.20
41628;DHT22;27321;50.816;6.054;2023-03-16T14:35:40;14.60;47.10
41628;DHT22;27321;50.816;6.054;2023-03-16T14:38:47;14.70;47.00
41628;DHT22;27321;50.816;6.054;2023-03-16T14:41:49;14.60;45.60
41628;DHT22;27321;50.816;6.054;2023-03-16T14:44:51;14.70;46.30
41628;DHT22;27321;50.816;6.054;2023-03-16T14:47:53;14.70;46.60
41628;DHT22;27321;50.816;6.054;2023-03-16T14:50:58;14.70;45.70
41628;DHT22;27321;50.816;6.054;2023-03-16T14:54:01;14.70;45.70
41628;DHT22;27321;50.816;6.054;2023-03-16T14:57:04;14.70;46.10
41628;DHT22;27321;50.816;6.054;2023-03-16T15:00:06;14.80;46.70
41628;DHT22;27321;50.816;6.054;2023-03-16T15:03:15;14.80;46.30
41628;DHT22;27321;50.816;6.054;2023-03-16T15:06:17;14.80;45.80
41628;DHT22;27321;50.816;6.054;2023-03-16T15:09:39;14.80;45.80
41628;DHT22;27321;50.816;6.054;2023-03-16T15:12:43;14.80;45.50
41628;DHT22;27321;50.816;6.054;2023-03-16T15:15:50;14.80;45.50
41628;DHT22;27321;50.816;6.054;2023-03-16T15:18:51;14.80;45.70
41628;DHT22;27321;50.816;6.054;2023-03-16T15:21:52;14.80;44.40
41628;DHT22;27321;50.816;6.054;2023-03-16T15:24:53;14.70;44.60
41628;DHT22;27321;50.816;6.054;2023-03-16T15:27:54;14.70;45.10
41628;DHT22;27321;50.816;6.054;2023-03-16T15:30:58;14.70;45.20
41628;DHT22;27321;50.816;6.054;2023-03-16T15:34:00;14.70;45.40
41628;DHT22;27321;50.816;6.054;2023-03-16T15:37:01;14.80;45.40
41628;DHT22;27321;50.816;6.054;2023-03-16T15:40:29;14.70;44.70
41628;DHT22;27321;50.816;6.054;2023-03-16T15:43:31;14.70;45.00
41628;DHT22;27321;50.816;6.054;2023-03-16T15:46:33;14.70;44.90
41628;DHT22;27321;50.816;6.054;2023-03-16T15:49:37;14.70;45.10
41628;DHT22;27321;50.816;6.054;2023-03-16T15:52:39;14.70;44.30
41628;DHT22;27321;50.816;6.054;2023-03-16T15:55:45;14.70;44.90
41628;DHT22;27321;50.816;6.054;2023-03-16T15:58:47;14.60;44.80
41628;DHT22;27321;50.816;6.054;2023-03-16T16:01:49;14.70;45.10
41628;DHT22;27321;50.816;6.054;2023-03-16T16:04:52;14.70;45.70
41628;DHT22;27321;50.816;6.054;2023-03-16T16:07:53;14.70;45.20
41628;DHT22;27321;50.816;6.054;2023-03-16T16:10:55;14.70;45.30
41628;DHT22;27321;50.816;6.054;2023-03-16T16:13:56;14.70;45.00
41628;DHT22;27321;50.816;6.054;2023-03-16T16:16:58;14.60;45.60
41628;DHT22;27321;50.816;6.054;2023-03-16T16:19:59;14.60;45.30
41628;DHT22;27321;50.816;6.054;2023-03-16T16:23:00;14.60;45.80
41628;DHT22;27321;50.816;6.054;2023-03-16T16:26:06;14.60;45.70
41628;DHT22;27321;50.816;6.054;2023-03-16T16:29:18;14.60;45.90
41628;DHT22;27321;50.816;6.054;2023-03-16T16:32:24;14.60;45.80
41628;DHT22;27321;50.816;6.054;2023-03-16T16:35:27;14.60;45.50
41628;DHT22;27321;50.816;6.054;2023-03-16T16:38:28;14.50;45.00
41628;DHT22;27321;50.816;6.054;2023-03-16T16:41:32;14.50;45.60
41628;DHT22;27321;50.816;6.054;2023-03-16T16:44:35;14.50;44.90
41628;DHT22;27321;50.816;6.054;2023-03-16T16:47:36;14.40;45.40
41628;DHT22;27321;50.816;6.054;2023-03-16T16:50:37;14.30;45.50
41628;DHT22;27321;50.816;6.054;2023-03-16T16:53:38;14.30;45.40
41628;DHT22;27321;50.816;6.054;2023-03-16T16:56:40;14.20;45.20
41628;DHT22;27321;50.816;6.054;2023-03-16T16:59:42;14.10;45.20
41628;DHT22;27321;50.816;6.054;2023-03-16T17:02:48;14.10;45.30
41628;DHT22;27321;50.816;6.054;2023-03-16T17:05:57;14.00;45.20
41628;DHT22;27321;50.816;6.054;2023-03-16T17:08:58;13.90;45.60
41628;DHT22;27321;50.816;6.054;2023-03-16T17:12:00;13.80;45.30
41628;DHT22;27321;50.816;6.054;2023-03-16T17:15:01;13.80;45.70
41628;DHT22;27321;50.816;6.054;2023-03-16T17:18:10;13.80;45.90
41628;DHT22;27321;50.816;6.054;2023-03-16T17:21:17;13.80;46.30
41628;DHT22;27321;50.816;6.054;2023-03-16T17:24:20;13.70;46.40
41628;DHT22;27321;50.816;6.054;2023-03-16T17:27:25;13.70;46.30
41628;DHT22;27321;50.816;6.054;2023-03-16T17:30:29;13.60;46.10
41628;DHT22;27321;50.816;6.054;2023-03-16T17:33:31;13.60;46.80
41628;DHT22;27321;50.816;6.054;2023-03-16T17:36:33;13.60;46.90
41628;DHT22;27321;50.816;6.054;2023-03-16T17:39:34;13.50;47.00
41628;DHT22;27321;50.816;6.054;2023-03-16T17:42:37;13.50;47.10
41628;DHT22;27321;50.816;6.054;2023-03-16T17:45:43;13.40;47.40
41628;DHT22;27321;50.816;6.054;2023-03-16T17:48:45;13.30;47.30
41628;DHT22;27321;50.816;6.054;2023-03-16T17:51:46;13.30;47.60
41628;DHT22;27321;50.816;6.054;2023-03-16T17:54:49;13.20;47.20
41628;DHT22;27321;50.816;6.054;2023-03-16T17:57:53;13.10;47.20
41628;DHT22;27321;50.816;6.054;2023-03-16T18:00:55;13.10;47.20
41628;DHT22;27321;50.816;6.054;2023-03-16T18:03:56;13.00;47.30
41628;DHT22;27321;50.816;6.054;2023-03-16T18:06:57;13.00;47.70
41628;DHT22;27321;50.816;6.054;2023-03-16T18:09:58;12.90;47.40
41628;DHT22;27321;50.816;6.054;2023-03-16T18:13:01;12.80;47.80
41628;DHT22;27321;50.816;6.054;2023-03-16T18:16:21;12.80;47.80
41628;DHT22;27321;50.816;6.054;2023-03-16T18:19:31;12.70;47.90
41628;DHT22;27321;50.816;6.054;2023-03-16T18:22:32;12.70;48.00
41628;DHT22;27321;50.816;6.054;2023-03-16T18:25:36;12.60;48.00
41628;DHT22;27321;50.816;6.054;2023-03-16T18:28:40;12.60;48.30
41628;DHT22;27321;50.816;6.054;2023-03-16T18:31:41;12.60;48.80
41628;DHT22;27321;50.816;6.054;2023-03-16T18:34:44;12.50;49.00
41628;DHT22;27321;50.816;6.054;2023-03-16T18:37:46;12.50;48.90
41628;DHT22;27321;50.816;6.054;2023-03-16T18:40:48;12.40;48.80
41628;DHT22;27321;50.816;6.054;2023-03-16T18:43:51;12.50;48.80
41628;DHT22;27321;50.816;6.054;2023-03-16T18:46:59;12.40;48.90
41628;DHT22;27321;50.816;6.054;2023-03-16T18:50:01;12.50;48.80
41628;DHT22;27321;50.816;6.054;2023-03-16T18:53:02;12.40;48.60
41628;DHT22;27321;50.816;6.054;2023-03-16T18:56:03;12.40;48.40
41628;DHT22;27321;50.816;6.054;2023-03-16T18:59:05;12.40;48.10
41628;DHT22;27321;50.816;6.054;2023-03-16T19:05:33;12.40;48.40
41628;DHT22;27321;50.816;6.054;2023-03-16T19:08:36;12.30;48.40
41628;DHT22;27321;50.816;6.054;2023-03-16T19:11:40;12.30;48.50
41628;DHT22;27321;50.816;6.054;2023-03-16T19:14:43;12.30;48.50
41628;DHT22;27321;50.816;6.054;2023-03-16T19:17:44;12.30;48.00
41628;DHT22;27321;50.816;6.054;2023-03-16T19:20:47;12.20;47.90
41628;DHT22;27321;50.816;6.054;2023-03-16T19:23:58;12.20;48.60
41628;DHT22;27321;50.816;6.054;2023-03-16T19:27:01;12.10;47.30
41628;DHT22;27321;50.816;6.054;2023-03-16T19:30:03;12.10;47.50
41628;DHT22;27321;50.816;6.054;2023-03-16T19:33:21;12.10;47.80
41628;DHT22;27321;50.816;6.054;2023-03-16T19:36:27;12.10;47.60
41628;DHT22;27321;50.816;6.054;2023-03-16T19:39:33;12.10;47.90
41628;DHT22;27321;50.816;6.054;2023-03-16T19:42:34;12.00;48.20
41628;DHT22;27321;50.816;6.054;2023-03-16T19:45:36;12.00;48.20
41628;DHT22;27321;50.816;6.054;2023-03-16T19:48:38;12.00;47.70
41628;DHT22;27321;50.816;6.054;2023-03-16T19:51:40;12.00;47.60
41628;DHT22;27321;50.816;6.054;2023-03-16T19:54:41;11.90;47.80
41628;DHT22;27321;50.816;6.054;2023-03-16T19:57:45;12.00;47.70
41628;DHT22;27321;50.816;6.054;2023-03-16T20:00:47;12.00;47.90
41628;DHT22;27321;50.816;6.054;2023-03-16T20:03:49;11.90;47.80
41628;DHT22;27321;50.816;6.054;2023-03-16T20:06:51;11.90;47.90
41628;DHT22;27321;50.816;6.054;2023-03-16T20:09:53;11.90;47.80
41628;DHT22;27321;50.816;6.054;2023-03-16T20:12:59;11.90;47.50
41628;DHT22;27321;50.816;6.054;2023-03-16T20:16:01;11.90;47.50
41628;DHT22;27321;50.816;6.054;2023-03-16T20:19:05;11.90;46.90
41628;DHT22;27321;50.816;6.054;2023-03-16T20:22:17;11.90;47.00
41628;DHT22;27321;50.816;6.054;2023-03-16T20:25:22;11.90;46.50
41628;DHT22;27321;50.816;6.054;2023-03-16T20:28:35;11.90;47.00
41628;DHT22;27321;50.816;6.054;2023-03-16T20:31:37;11.90;47.00
41628;DHT22;27321;50.816;6.054;2023-03-16T20:34:37;11.90;46.80
41628;DHT22;27321;50.816;6.054;2023-03-16T20:37:38;11.90;47.40
41628;DHT22;27321;50.816;6.054;2023-03-16T20:40:44;11.90;47.20
41628;DHT22;27321;50.816;6.054;2023-03-16T20:43:46;11.80;47.00
41628;DHT22;27321;50.816;6.054;2023-03-16T20:46:48;11.90;46.40
41628;DHT22;27321;50.816;6.054;2023-03-16T20:49:53;11.90;47.40